This is the latest recevied weather packets stored in our database for station/object G1YBJ-13. If no packets are shown the sender has not sent any weather packets the latest 10 day(s).
| Time | Temp. | Humidity | Pressure | Rain* | Wind** | Luminosity | Snow |
|---|---|---|---|---|---|---|---|
| 1777620775 | 15.56° C | 55% | 1021.1 hPa | - | - | - | - |
| 1777619875 | 14.44° C | 57% | 1021.1 hPa | - | - | - | - |
| 1777618973 | 13.33° C | 58% | 1020.9 hPa | - | - | - | - |
| 1777618072 | 12.22° C | 60% | 1021.1 hPa | - | - | - | - |
| 1777617170 | 11.11° C | 62% | 1021.1 hPa | - | - | - | - |
| 1777616269 | 10° C | 65% | 1021.1 hPa | - | - | - | - |
| 1777615368 | 8.89° C | 66% | 1021.2 hPa | - | - | - | - |
| 1777614466 | 7.78° C | 68% | 1021.2 hPa | - | - | - | - |
| 1777613565 | 7.22° C | 68% | 1021.1 hPa | - | - | - | - |
| 1777612664 | 7.22° C | 69% | 1021 hPa | - | - | - | - |
| 1777611763 | 6.67° C | 68% | 1020.9 hPa | - | - | - | - |
| 1777610861 | 6.67° C | 69% | 1020.9 hPa | - | - | - | - |
| 1777609960 | 6.67° C | 68% | 1020.9 hPa | - | - | - | - |
| 1777609058 | 6.67° C | 68% | 1020.7 hPa | - | - | - | - |
| 1777608157 | 6.67° C | 67% | 1020.7 hPa | - | - | - | - |
| 1777607256 | 6.67° C | 67% | 1020.9 hPa | - | - | - | - |
| 1777606354 | 7.22° C | 67% | 1020.8 hPa | - | - | - | - |
| 1777605452 | 7.22° C | 66% | 1020.9 hPa | - | - | - | - |
| 1777604551 | 7.22° C | 66% | 1021 hPa | - | - | - | - |
| 1777603649 | 7.78° C | 65% | 1021.1 hPa | - | - | - | - |
| 1777602747 | 7.78° C | 65% | 1021.2 hPa | - | - | - | - |
| 1777601846 | 7.78° C | 64% | 1021.2 hPa | - | - | - | - |
| 1777600944 | 7.78° C | 65% | 1021.2 hPa | - | - | - | - |
| 1777600043 | 7.78° C | 63% | 1021.4 hPa | - | - | - | - |
| 1777599141 | 7.78° C | 63% | 1021.6 hPa | - | - | - | - |
* Rain since midnight (hover to see other rain measurements)
** Current wind speed in m/s (hover to see current wind gust speed)